Time;durP1;ratioP1;P1;durP2;ratioP2;P2;SDS_P1;SDS_P2;PMS_P1;PMS_P2;Temp;Humidity;BMP_temperature;BMP_pressure;BME280_temperature;BME280_humidity;BME280_pressure;Samples;Min_cycle;Max_cycle;Signal;HPM_P1;HPM_P2
2022/08/15 00:02:00;;;;;;;3.23;2.93;;;21.80;96.50;;;;;;5030396;28;20456;-68
2022/08/15 00:04:27;;;;;;;2.87;2.67;;;21.90;95.90;;;;;;5029604;28;20462;-68
2022/08/15 00:06:55;;;;;;;3.10;2.90;;;21.80;96.20;;;;;;5030388;28;20489;-68
2022/08/15 00:09:23;;;;;;;2.77;2.57;;;21.80;97.10;;;;;;5029812;28;20905;-68
2022/08/15 00:11:52;;;;;;;2.87;2.57;;;21.80;97.40;;;;;;5030258;28;20505;-68
2022/08/15 00:14:23;;;;;;;3.27;2.97;;;21.80;97.60;;;;;;5029338;28;20457;-68
2022/08/15 00:16:50;;;;;;;3.73;3.43;;;21.80;98.00;;;;;;5030336;28;20493;-68
2022/08/15 00:19:20;;;;;;;3.50;3.20;;;21.70;97.60;;;;;;5029673;28;20497;-68
2022/08/15 00:21:50;;;;;;;4.10;3.70;;;21.70;97.90;;;;;;5030299;28;20474;-68
2022/08/15 00:24:22;;;;;;;3.30;3.00;;;21.70;97.60;;;;;;5029158;28;20468;-68
2022/08/15 00:26:51;;;;;;;3.13;2.93;;;21.70;97.50;;;;;;5030339;28;20497;-69
2022/08/15 00:29:20;;;;;;;3.40;3.10;;;21.50;97.30;;;;;;5033317;28;20467;-67
2022/08/15 00:31:47;;;;;;;3.57;3.10;;;21.30;97.10;;;;;;5033576;28;20887;-68
2022/08/15 00:34:17;;;;;;;3.33;3.10;;;21.20;97.10;;;;;;5032686;28;20470;-67
2022/08/15 00:36:46;;;;;;;3.60;3.30;;;21.20;97.40;;;;;;5033431;28;20474;-68
2022/08/15 00:39:13;;;;;;;3.90;3.50;;;21.20;97.10;;;;;;5033277;28;20466;-68
2022/08/15 00:41:41;;;;;;;4.03;3.07;;;21.30;97.40;;;;;;5033480;28;20469;-67
2022/08/15 00:44:11;;;;;;;3.20;2.90;;;21.30;97.60;;;;;;5032812;28;20924;-68
2022/08/15 00:46:39;;;;;;;3.50;3.13;;;21.30;97.10;;;;;;5033172;28;21008;-68
2022/08/15 00:49:06;;;;;;;3.90;3.50;;;21.30;97.00;;;;;;5033004;28;20977;-67
2022/08/15 00:51:38;;;;;;;3.50;2.90;;;21.30;96.80;;;;;;5033036;28;20472;-69
2022/08/15 00:54:08;;;;;;;3.20;2.90;;;21.40;96.70;;;;;;5032694;28;20469;-68
2022/08/15 00:56:39;;;;;;;3.40;3.10;;;21.40;96.80;;;;;;5033044;28;20481;-68
2022/08/15 00:59:11;;;;;;;3.00;2.70;;;21.40;96.90;;;;;;5033101;28;20518;-68
2022/08/15 01:01:38;;;;;;;3.47;3.17;;;21.40;97.00;;;;;;5033073;28;20470;-68
2022/08/15 01:06:36;;;;;;;3.50;3.20;;;21.40;97.10;;;;;;5049256;22;20508;-93
2022/08/15 01:09:05;;;;;;;3.60;3.00;;;21.40;97.20;;;;;;5018150;28;20566;-93
2022/08/15 01:11:37;;;;;;;3.47;3.20;;;21.40;97.40;;;;;;5018181;28;20477;-93
2022/08/15 01:14:06;;;;;;;3.50;3.20;;;21.40;97.50;;;;;;5019127;28;20808;-93
2022/08/15 01:16:38;;;;;;;3.43;3.13;;;21.40;97.50;;;;;;5018697;28;20482;-93
2022/08/15 01:19:09;;;;;;;3.27;2.97;;;21.40;97.50;;;;;;5017775;28;20516;-93
2022/08/15 01:21:39;;;;;;;3.27;2.97;;;21.40;97.70;;;;;;5018202;28;20957;-93
2022/08/15 01:24:15;;;;;;;4.03;3.63;;;21.40;97.80;;;;;;5017746;28;20465;-93
2022/08/15 01:26:44;;;;;;;9.40;3.00;;;21.40;98.10;;;;;;5017941;28;20559;-93
2022/08/15 01:29:12;;;;;;;3.80;3.50;;;21.40;98.10;;;;;;5018025;28;20466;-93
2022/08/15 01:31:39;;;;;;;3.47;3.13;;;21.40;98.20;;;;;;5018211;28;20910;-94
2022/08/15 01:34:06;;;;;;;3.17;2.90;;;21.40;98.20;;;;;;5020371;28;20455;-93
2022/08/15 01:36:33;;;;;;;3.10;2.80;;;21.40;98.20;;;;;;5018276;28;20483;-94
2022/08/15 01:39:09;;;;;;;3.30;3.00;;;21.50;98.30;;;;;;5020344;28;20469;-93
2022/08/15 01:41:40;;;;;;;3.93;3.23;;;21.40;98.30;;;;;;5018028;28;20463;-93
2022/08/15 01:44:19;;;;;;;4.00;3.03;;;21.40;98.30;;;;;;5018593;28;20474;-94
2022/08/15 01:46:51;;;;;;;3.07;2.77;;;21.40;98.40;;;;;;5018134;28;20488;-93
2022/08/15 01:49:24;;;;;;;3.27;2.97;;;21.40;98.60;;;;;;5017693;28;20470;-94
2022/08/15 01:51:53;;;;;;;3.30;3.00;;;21.40;98.70;;;;;;5016995;28;20474;-93
2022/08/15 01:54:23;;;;;;;2.90;2.60;;;21.40;98.80;;;;;;5016202;28;20837;-94
2022/08/15 01:56:50;;;;;;;3.73;3.30;;;21.40;98.90;;;;;;5017870;28;20985;-93
2022/08/15 01:59:20;;;;;;;3.60;3.10;;;21.30;98.90;;;;;;5018383;28;20492;-93
2022/08/15 02:01:49;;;;;;;3.30;2.47;;;21.30;99.00;;;;;;5018263;28;20488;-94
2022/08/15 02:04:18;;;;;;;2.80;2.60;;;21.30;99.10;;;;;;5017367;28;20548;-95
2022/08/15 02:06:49;;;;;;;5.07;2.80;;;21.30;99.50;;;;;;5017703;28;20474;-93
2022/08/15 02:09:19;;;;;;;3.67;2.50;;;21.20;99.30;;;;;;5018328;28;20474;-94
2022/08/15 02:11:48;;;;;;;4.03;3.10;;;21.20;99.40;;;;;;5019822;28;20533;-93
2022/08/15 02:14:50;;;;;;;4.87;3.63;;;21.20;99.40;;;;;;5019449;28;20462;-93
2022/08/15 02:17:17;;;;;;;3.47;2.97;;;21.20;99.50;;;;;;5019178;28;20521;-93
2022/08/15 02:19:48;;;;;;;2.87;2.67;;;21.20;99.50;;;;;;5019852;28;20466;-93
2022/08/15 02:22:16;;;;;;;2.90;2.50;;;21.20;99.50;;;;;;5019949;28;20471;-93
2022/08/15 02:24:43;;;;;;;3.27;2.97;;;21.30;99.60;;;;;;5019083;28;20493;-94
2022/08/15 02:27:11;;;;;;;2.60;2.40;;;21.20;99.60;;;;;;5018867;28;20488;-93
2022/08/15 02:29:41;;;;;;;2.87;2.67;;;21.20;99.70;;;;;;5018853;28;20462;-93
2022/08/15 02:32:12;;;;;;;3.40;2.77;;;21.20;99.80;;;;;;5020349;28;20463;-95
2022/08/15 02:34:40;;;;;;;4.13;3.20;;;21.20;99.90;;;;;;5018787;28;20491;-93
2022/08/15 02:37:08;;;;;;;3.00;2.80;;;21.10;99.90;;;;;;5020664;28;20960;-93
2022/08/15 02:39:35;;;;;;;3.90;2.83;;;21.10;99.90;;;;;;5028921;28;20489;-93
2022/08/15 02:42:03;;;;;;;3.47;2.97;;;21.10;99.90;;;;;;5031460;28;20450;-93
2022/08/15 02:44:30;;;;;;;2.60;2.30;;;21.10;99.90;;;;;;5022933;28;20925;-93
2022/08/15 02:47:13;;;;;;;3.43;3.00;;;21.10;99.90;;;;;;5020709;28;20486;-93
2022/08/15 02:49:48;;;;;;;3.00;2.70;;;21.00;99.90;;;;;;5021158;28;20501;-94
2022/08/15 02:52:29;;;;;;;4.20;2.90;;;21.00;99.90;;;;;;5022180;28;20453;-93
2022/08/15 02:55:19;;;;;;;3.70;2.50;;;21.00;99.90;;;;;;5022149;28;20501;-93
2022/08/15 02:57:47;;;;;;;3.30;3.00;;;21.00;99.90;;;;;;4994836;28;20446;-96
2022/08/15 03:00:17;;;;;;;3.23;2.90;;;20.90;99.90;;;;;;5026810;28;20543;-93
2022/08/15 03:05:36;;;;;;;2.83;2.33;;;20.90;99.90;;;;;;5019488;28;20495;-94
2022/08/15 03:08:04;;;;;;;4.43;2.87;;;20.90;99.90;;;;;;5018942;28;20492;-94
2022/08/15 03:10:31;;;;;;;3.13;2.80;;;20.90;99.90;;;;;;5021379;28;20469;-93
2022/08/15 03:15:46;;;;;;;8.03;2.80;;;20.80;99.90;;;;;;5010483;28;20507;-93
2022/08/15 03:18:13;;;;;;;2.53;2.33;;;20.90;99.90;;;;;;5017496;28;20504;-93
2022/08/15 03:20:41;;;;;;;3.37;2.43;;;20.80;99.90;;;;;;5015434;28;20466;-92
2022/08/15 03:23:09;;;;;;;3.20;2.53;;;20.80;99.90;;;;;;5016436;28;20462;-93
2022/08/15 03:25:39;;;;;;;2.50;2.30;;;20.80;99.90;;;;;;5016938;28;20482;-92
2022/08/15 03:28:08;;;;;;;2.70;2.50;;;20.70;99.90;;;;;;5019506;28;20487;-92
2022/08/15 03:30:36;;;;;;;3.00;2.67;;;20.70;99.90;;;;;;5028899;28;20539;-92
2022/08/15 03:33:03;;;;;;;2.50;2.30;;;20.60;99.90;;;;;;5020459;28;20516;-92
2022/08/15 03:35:33;;;;;;;3.00;2.70;;;20.60;99.90;;;;;;5012358;28;20478;-92
2022/08/15 03:38:01;;;;;;;3.10;2.77;;;20.50;99.90;;;;;;5020841;28;20435;-92
2022/08/15 03:40:32;;;;;;;3.20;2.53;;;20.50;99.90;;;;;;5036237;28;20438;-96
2022/08/15 03:43:03;;;;;;;3.00;2.53;;;20.50;99.90;;;;;;5023431;28;20703;-92
2022/08/15 03:45:34;;;;;;;4.83;2.50;;;20.50;99.90;;;;;;5018483;28;20469;-92
2022/08/15 03:48:01;;;;;;;3.77;2.57;;;20.50;99.90;;;;;;5033840;28;20478;-94
2022/08/15 03:50:31;;;;;;;2.97;2.70;;;20.50;99.90;;;;;;5034741;28;20465;-94
2022/08/15 03:53:00;;;;;;;2.47;2.27;;;20.40;99.90;;;;;;5035645;28;20448;-94
2022/08/15 03:55:28;;;;;;;2.50;2.30;;;20.30;99.90;;;;;;5035923;28;20530;-95
2022/08/15 03:57:57;;;;;;;5.23;2.90;;;20.20;99.90;;;;;;5036757;28;20519;-95
2022/08/15 04:00:29;;;;;;;2.60;2.40;;;20.20;99.90;;;;;;5035971;28;20458;-93
2022/08/15 04:03:07;;;;;;;2.93;2.50;;;20.20;99.90;;;;;;5026085;28;20454;-93
2022/08/15 04:05:34;;;;;;;3.10;2.80;;;20.20;99.90;;;;;;5022971;28;21002;-94
2022/08/15 04:08:02;;;;;;;2.60;2.40;;;20.10;99.90;;;;;;5025201;28;20919;-94
2022/08/15 04:10:29;;;;;;;2.60;2.40;;;20.00;99.90;;;;;;5025352;28;20496;-93
2022/08/15 04:12:56;;;;;;;2.60;2.40;;;19.90;99.90;;;;;;5023245;28;20477;-93
2022/08/15 04:15:23;;;;;;;6.23;2.80;;;19.90;99.90;;;;;;5021784;28;20481;-93
2022/08/15 04:17:51;;;;;;;2.87;2.63;;;19.90;99.90;;;;;;5023476;28;20470;-94
2022/08/15 04:20:20;;;;;;;3.20;2.90;;;19.80;99.90;;;;;;5021789;28;20462;-93
2022/08/15 04:32:56;;;;;;;2.27;2.00;;;19.70;99.90;;;;;;4973215;28;20964;-93
2022/08/15 04:35:24;;;;;;;2.87;2.67;;;19.70;99.90;;;;;;5020290;28;20478;-93
2022/08/15 04:37:51;;;;;;;4.40;3.10;;;19.60;99.90;;;;;;5020920;28;20454;-94
2022/08/15 04:40:18;;;;;;;3.80;3.40;;;19.60;99.90;;;;;;5021162;28;20841;-94
2022/08/15 04:42:49;;;;;;;3.93;3.40;;;19.60;99.90;;;;;;5020371;28;20461;-94
2022/08/15 04:45:17;;;;;;;4.33;2.83;;;19.60;99.90;;;;;;5021606;28;21038;-94
2022/08/15 04:47:43;;;;;;;4.10;2.73;;;19.50;99.90;;;;;;5022199;28;20489;-93
2022/08/15 04:50:10;;;;;;;4.40;2.60;;;19.50;99.90;;;;;;5021300;28;20973;-93
2022/08/15 04:52:46;;;;;;;3.57;3.07;;;19.50;99.90;;;;;;5020898;28;20468;-93
2022/08/15 04:55:14;;;;;;;3.10;2.60;;;19.50;99.90;;;;;;5021815;28;20512;-93
2022/08/15 05:01:04;;;;;;;3.20;2.83;;;19.60;99.90;;;;;;5020408;28;20455;-95
2022/08/15 05:03:31;;;;;;;2.90;2.70;;;19.60;99.90;;;;;;5020619;28;20520;-94
2022/08/15 05:06:01;;;;;;;2.63;2.43;;;19.60;99.90;;;;;;5020128;28;20489;-93
2022/08/15 05:08:33;;;;;;;3.60;2.77;;;19.50;99.90;;;;;;5020332;28;20520;-94
2022/08/15 05:11:04;;;;;;;2.40;2.20;;;19.50;99.90;;;;;;5022144;28;20457;-93
2022/08/15 05:13:35;;;;;;;2.97;2.30;;;19.50;99.90;;;;;;5019788;28;20466;-93
2022/08/15 05:16:04;;;;;;;2.40;2.00;;;19.50;99.90;;;;;;5021054;28;20483;-92
2022/08/15 05:18:33;;;;;;;2.57;2.37;;;19.50;99.90;;;;;;5018440;28;20474;-93
2022/08/15 05:21:00;;;;;;;2.90;2.60;;;19.50;99.90;;;;;;5023857;28;20465;-93
2022/08/15 05:23:29;;;;;;;2.30;2.10;;;19.50;99.90;;;;;;5011495;28;20462;-93
2022/08/15 05:26:33;;;;;;;2.73;2.37;;;19.40;99.90;;;;;;5006700;28;20485;-93
2022/08/15 05:29:26;;;;;;;2.80;2.37;;;19.40;99.90;;;;;;5006959;28;20485;-94
2022/08/15 05:35:50;;;;;;;2.33;2.13;;;19.30;99.90;;;;;;4958049;28;20476;-92
2022/08/15 05:41:56;;;;;;;2.63;2.13;;;19.30;99.90;;;;;;4993101;28;20459;-93
2022/08/15 05:52:02;;;;;;;;;;;;;;;;;;;;;
2022/08/15 05:54:43;;;;;;;3.30;2.40;;;19.30;99.90;;;;;;4892650;29;20461;-93
2022/08/15 06:00:01;;;;;;;3.40;1.90;;;19.20;99.90;;;;;;5024934;28;20462;-95
2022/08/15 06:02:33;;;;;;;2.40;2.00;;;19.30;99.90;;;;;;5016127;28;20475;-96
2022/08/15 06:05:04;;;;;;;3.97;2.63;;;19.30;99.90;;;;;;5026922;28;20485;-95
2022/08/15 06:07:33;;;;;;;3.17;2.30;;;19.30;99.90;;;;;;5016740;28;20482;-94
2022/08/15 06:10:05;;;;;;;4.40;2.07;;;19.30;99.90;;;;;;5009333;28;20847;-96
2022/08/15 06:12:35;;;;;;;2.37;2.17;;;19.40;99.90;;;;;;5007826;28;20463;-95
2022/08/15 06:15:07;;;;;;;2.57;1.90;;;19.40;99.90;;;;;;5007269;28;20481;-95
2022/08/15 06:17:39;;;;;;;2.57;1.83;;;19.40;99.90;;;;;;5007201;28;20464;-95
2022/08/15 06:20:09;;;;;;;2.10;1.90;;;19.40;99.90;;;;;;5005400;28;20495;-95
2022/08/15 06:23:00;;;;;;;2.40;2.20;;;19.40;99.90;;;;;;5008129;28;20469;-95
2022/08/15 06:25:38;;;;;;;4.90;2.20;;;19.40;99.90;;;;;;5008359;28;20475;-96
2022/08/15 06:28:16;;;;;;;2.30;2.00;;;19.40;99.90;;;;;;5007610;28;20517;-95
2022/08/15 06:30:50;;;;;;;3.80;2.30;;;19.40;99.90;;;;;;5007376;28;20459;-95
2022/08/15 06:33:28;;;;;;;1.80;1.70;;;19.40;99.90;;;;;;5008935;28;20456;-95
2022/08/15 06:36:02;;;;;;;2.07;1.87;;;19.50;99.90;;;;;;5004041;28;20582;-95
2022/08/15 06:38:42;;;;;;;1.60;1.50;;;19.40;99.90;;;;;;5002089;28;20456;-95
2022/08/15 06:41:20;;;;;;;2.37;2.17;;;19.40;99.90;;;;;;5001019;28;20554;-95
2022/08/15 06:43:48;;;;;;;2.20;1.93;;;19.40;99.90;;;;;;5002878;28;20459;-96
2022/08/15 06:46:15;;;;;;;5.00;1.87;;;19.40;99.90;;;;;;5005220;28;20519;-95
2022/08/15 06:48:43;;;;;;;2.50;2.03;;;19.50;99.90;;;;;;5002395;28;20795;-95
2022/08/15 06:51:12;;;;;;;2.60;2.20;;;19.50;99.90;;;;;;5003785;28;20463;-95
2022/08/15 06:53:47;;;;;;;2.30;2.07;;;19.60;99.90;;;;;;5010028;28;20467;-95
2022/08/15 06:56:51;;;;;;;3.03;2.20;;;19.50;99.90;;;;;;5007686;28;20926;-95
2022/08/15 07:03:28;;;;;;;2.13;1.83;;;19.50;99.90;;;;;;4976068;28;20458;-94
2022/08/15 07:06:12;;;;;;;2.17;1.97;;;19.50;99.90;;;;;;4996914;28;20501;-94
2022/08/15 07:08:52;;;;;;;2.03;1.83;;;19.70;99.90;;;;;;5001774;28;20497;-94
2022/08/15 07:11:27;;;;;;;2.00;1.90;;;19.80;99.90;;;;;;5033981;23;20501;-68
2022/08/15 07:14:04;;;;;;;2.53;2.10;;;19.90;99.90;;;;;;5030252;28;20552;-69
2022/08/15 07:16:43;;;;;;;2.10;1.90;;;20.00;99.90;;;;;;5030640;28;20485;-69
2022/08/15 07:19:10;;;;;;;3.40;2.60;;;20.10;99.90;;;;;;5024074;28;20470;-70
2022/08/15 07:21:37;;;;;;;2.60;2.07;;;20.10;99.90;;;;;;5009760;28;20971;-70
2022/08/15 07:24:08;;;;;;;2.33;1.93;;;20.20;99.90;;;;;;5007495;28;20469;-70
2022/08/15 07:26:42;;;;;;;3.60;2.60;;;20.30;99.90;;;;;;5010132;28;20533;-71
2022/08/15 07:29:12;;;;;;;1.93;1.83;;;20.40;99.90;;;;;;5010197;28;20874;-69
2022/08/15 07:31:43;;;;;;;1.90;1.77;;;20.30;99.90;;;;;;5010681;28;20517;-69
2022/08/15 07:34:19;;;;;;;1.60;1.40;;;20.30;99.90;;;;;;5009387;28;20519;-69
2022/08/15 07:36:55;;;;;;;2.37;1.60;;;20.30;99.90;;;;;;5011362;28;20489;-69
2022/08/15 07:39:27;;;;;;;2.27;2.07;;;20.30;99.90;;;;;;5014159;28;20465;-69
2022/08/15 07:41:54;;;;;;;2.27;2.03;;;20.40;99.90;;;;;;5014293;28;20488;-69
2022/08/15 07:44:26;;;;;;;1.93;1.80;;;20.40;99.90;;;;;;5013627;28;20458;-69
2022/08/15 07:46:56;;;;;;;2.23;2.00;;;20.40;99.90;;;;;;5014676;28;20850;-69
2022/08/15 07:49:26;;;;;;;1.53;1.30;;;20.50;99.90;;;;;;5014103;28;20486;-70
2022/08/15 07:52:01;;;;;;;2.10;1.90;;;20.60;99.90;;;;;;5013491;28;20957;-68
2022/08/15 07:54:31;;;;;;;1.73;1.60;;;20.60;99.90;;;;;;5013583;28;21006;-69
2022/08/15 07:57:02;;;;;;;2.03;1.83;;;20.60;99.90;;;;;;5013708;28;20485;-69
2022/08/15 07:59:33;;;;;;;1.60;1.50;;;20.70;99.90;;;;;;5014149;28;20457;-68
2022/08/15 08:02:10;;;;;;;2.27;1.70;;;20.80;99.90;;;;;;5013353;28;21032;-69
2022/08/15 08:04:37;;;;;;;1.87;1.77;;;21.00;99.90;;;;;;5013144;28;20457;-69
2022/08/15 08:07:07;;;;;;;2.00;1.80;;;21.20;99.90;;;;;;5013482;28;20880;-69
2022/08/15 08:09:43;;;;;;;2.67;1.70;;;21.30;99.90;;;;;;5013973;28;20552;-68
2022/08/15 08:12:18;;;;;;;1.73;1.63;;;21.40;99.90;;;;;;5014104;28;20572;-68
2022/08/15 08:14:53;;;;;;;3.07;1.77;;;21.50;99.90;;;;;;5014141;28;20454;-69
2022/08/15 08:17:30;;;;;;;1.90;1.60;;;21.50;99.90;;;;;;5014124;28;20993;-69
2022/08/15 08:20:06;;;;;;;2.80;1.73;;;21.60;99.90;;;;;;5014052;28;20454;-69
2022/08/15 08:22:40;;;;;;;1.80;1.70;;;21.70;99.90;;;;;;5014070;28;20461;-70
2022/08/15 08:25:17;;;;;;;2.60;1.60;;;21.90;99.90;;;;;;5013301;28;20883;-70
2022/08/15 08:27:51;;;;;;;2.43;1.73;;;22.10;99.90;;;;;;5014031;28;20506;-69
2022/08/15 08:30:23;;;;;;;2.10;1.90;;;22.20;99.90;;;;;;5013902;28;20467;-70
2022/08/15 08:32:57;;;;;;;1.70;1.40;;;22.40;99.90;;;;;;5013996;28;20462;-70
2022/08/15 08:35:35;;;;;;;1.53;1.43;;;22.50;99.90;;;;;;5013390;28;20468;-69
2022/08/15 08:38:15;;;;;;;2.23;2.03;;;22.70;99.90;;;;;;5013464;28;20515;-69
2022/08/15 08:43:43;;;;;;;2.17;1.60;;;22.90;99.70;;;;;;5013415;28;20450;-71
2022/08/15 08:46:21;;;;;;;1.90;1.60;;;22.90;99.90;;;;;;5013763;28;20897;-69
2022/08/15 08:48:59;;;;;;;1.50;1.40;;;23.00;99.20;;;;;;5013375;28;20493;-70
2022/08/15 08:51:34;;;;;;;1.50;1.40;;;23.10;99.20;;;;;;5013561;28;20464;-70
2022/08/15 08:54:08;;;;;;;2.10;1.90;;;23.20;98.50;;;;;;5012526;28;20469;-68
2022/08/15 08:56:40;;;;;;;1.43;1.33;;;23.30;98.60;;;;;;5013456;28;20492;-69
2022/08/15 08:59:16;;;;;;;2.33;1.70;;;23.50;99.70;;;;;;5013043;28;20492;-70
2022/08/15 09:01:45;;;;;;;1.93;1.83;;;23.60;98.00;;;;;;5013433;28;20487;-68
2022/08/15 09:04:17;;;;;;;1.80;1.60;;;23.80;98.30;;;;;;5012471;28;20888;-69
2022/08/15 09:06:47;;;;;;;2.00;1.80;;;23.90;97.80;;;;;;5012935;28;20484;-68
2022/08/15 09:09:27;;;;;;;1.70;1.60;;;23.90;97.70;;;;;;5012928;28;20586;-70
2022/08/15 09:12:01;;;;;;;1.63;1.33;;;24.00;98.40;;;;;;5013031;28;20864;-69
2022/08/15 09:14:32;;;;;;;1.50;1.40;;;24.20;98.00;;;;;;5012740;28;20468;-70
2022/08/15 09:17:05;;;;;;;1.50;1.40;;;24.30;98.00;;;;;;5012918;28;20478;-70
2022/08/15 09:19:42;;;;;;;1.60;1.50;;;24.30;96.60;;;;;;5012922;28;20957;-70
2022/08/15 09:22:09;;;;;;;2.90;1.70;;;24.20;97.50;;;;;;5012673;28;20958;-70
2022/08/15 09:24:35;;;;;;;1.60;1.50;;;24.20;96.60;;;;;;5012435;28;20551;-69
2022/08/15 09:27:12;;;;;;;1.50;1.40;;;24.20;96.60;;;;;;5012479;28;20488;-69
2022/08/15 09:29:43;;;;;;;2.27;1.50;;;24.30;96.70;;;;;;5012713;28;20496;-69
2022/08/15 09:32:33;;;;;;;1.83;1.70;;;24.30;94.90;;;;;;5012267;28;20459;-69
2022/08/15 09:35:13;;;;;;;1.70;1.53;;;24.20;96.20;;;;;;5011909;28;21042;-69
2022/08/15 09:38:07;;;;;;;2.47;1.77;;;24.10;96.00;;;;;;5012442;28;20492;-70
2022/08/15 09:41:00;;;;;;;1.67;1.57;;;24.20;96.40;;;;;;5013114;28;20457;-70
2022/08/15 09:43:55;;;;;;;1.50;1.40;;;24.40;96.50;;;;;;5012078;28;20833;-70
2022/08/15 09:46:52;;;;;;;1.57;1.47;;;24.70;95.90;;;;;;5012355;28;20468;-70
2022/08/15 09:49:31;;;;;;;2.37;2.17;;;25.00;96.10;;;;;;4971270;28;21098;-70
2022/08/15 09:52:09;;;;;;;1.60;1.50;;;25.30;95.90;;;;;;5012138;28;20512;-70
2022/08/15 09:54:46;;;;;;;1.70;1.60;;;25.50;95.30;;;;;;5012087;28;20466;-70
2022/08/15 09:57:34;;;;;;;2.17;1.63;;;25.70;94.10;;;;;;5011988;28;20477;-70
2022/08/15 10:00:17;;;;;;;2.03;1.83;;;25.80;93.00;;;;;;5011864;28;20457;-70
2022/08/15 10:02:45;;;;;;;1.87;1.50;;;25.80;94.20;;;;;;5012413;28;20552;-70
2022/08/15 10:05:23;;;;;;;1.97;1.87;;;25.80;93.20;;;;;;5011550;28;20469;-70
2022/08/15 10:07:53;;;;;;;1.93;1.77;;;25.90;93.30;;;;;;5011817;28;20482;-71
2022/08/15 10:10:24;;;;;;;1.80;1.70;;;26.10;93.90;;;;;;5011550;28;20548;-69
2022/08/15 10:13:13;;;;;;;2.90;1.67;;;26.20;93.20;;;;;;5011891;28;20512;-69
2022/08/15 10:15:44;;;;;;;3.90;1.97;;;26.50;93.40;;;;;;5008639;28;20888;-69
2022/08/15 10:18:31;;;;;;;2.00;1.80;;;26.60;92.80;;;;;;5030070;28;20489;-70
2022/08/15 10:21:02;;;;;;;2.20;2.00;;;26.60;91.80;;;;;;5030803;28;20804;-67
2022/08/15 10:23:43;;;;;;;2.40;1.80;;;26.30;91.30;;;;;;4990872;28;20726;-68
2022/08/15 10:26:26;;;;;;;1.70;1.60;;;26.20;91.50;;;;;;4998659;28;20465;-68
2022/08/15 10:29:04;;;;;;;1.60;1.50;;;26.10;91.50;;;;;;5030647;28;20558;-68
2022/08/15 10:31:44;;;;;;;2.53;1.90;;;26.20;91.20;;;;;;5031143;28;20492;-69
2022/08/15 10:34:19;;;;;;;1.50;1.40;;;26.30;91.00;;;;;;5030100;28;20468;-69
2022/08/15 10:37:07;;;;;;;2.77;1.97;;;26.40;90.60;;;;;;5030296;28;20852;-68
2022/08/15 10:39:43;;;;;;;2.20;2.00;;;26.30;90.50;;;;;;5030492;28;20461;-69
2022/08/15 10:42:26;;;;;;;2.70;2.23;;;26.30;90.70;;;;;;5030462;28;20465;-69
2022/08/15 10:45:00;;;;;;;1.60;1.50;;;26.30;91.80;;;;;;5030060;28;20474;-69
2022/08/15 10:47:37;;;;;;;2.23;1.90;;;26.50;91.00;;;;;;5031563;28;20481;-69
2022/08/15 10:50:15;;;;;;;2.50;1.80;;;26.70;91.80;;;;;;5026484;28;20485;-69
2022/08/15 10:52:55;;;;;;;3.23;1.80;;;27.00;92.20;;;;;;5008821;28;20557;-71
2022/08/15 10:55:29;;;;;;;2.57;2.03;;;27.20;91.10;;;;;;5008581;28;20469;-70
2022/08/15 10:58:00;;;;;;;1.60;1.50;;;27.20;91.20;;;;;;5010544;28;20481;-71
2022/08/15 11:00:41;;;;;;;1.77;1.50;;;27.00;91.70;;;;;;5010127;28;20536;-71
2022/08/15 11:03:18;;;;;;;1.97;1.77;;;26.80;91.80;;;;;;5010363;28;20480;-72
2022/08/15 11:05:55;;;;;;;1.93;1.83;;;26.80;91.30;;;;;;5010676;28;20476;-71
2022/08/15 11:08:23;;;;;;;2.30;2.10;;;26.80;91.20;;;;;;5009722;28;20487;-69
2022/08/15 11:10:51;;;;;;;2.63;1.93;;;26.80;90.90;;;;;;5009896;28;20470;-68
2022/08/15 11:13:23;;;;;;;1.67;1.57;;;26.80;90.20;;;;;;5009350;28;20469;-69
2022/08/15 11:15:54;;;;;;;1.90;1.70;;;26.50;91.20;;;;;;5011009;28;20454;-72
2022/08/15 11:18:28;;;;;;;2.10;1.90;;;26.40;91.40;;;;;;5010808;28;20628;-69
2022/08/15 11:21:02;;;;;;;2.30;2.00;;;26.30;91.20;;;;;;5010030;28;20485;-69
2022/08/15 11:23:33;;;;;;;1.70;1.60;;;26.50;91.80;;;;;;5010345;28;20865;-69
2022/08/15 11:26:00;;;;;;;2.60;2.03;;;26.60;91.60;;;;;;5010143;28;20466;-69
2022/08/15 11:28:29;;;;;;;1.93;1.83;;;26.50;88.60;;;;;;5010649;28;20572;-68
2022/08/15 11:31:00;;;;;;;1.87;1.73;;;26.40;90.50;;;;;;5010007;28;20450;-68
2022/08/15 11:33:40;;;;;;;4.80;2.20;;;26.20;91.90;;;;;;5009877;28;21224;-69
2022/08/15 11:36:10;;;;;;;2.90;2.23;;;26.20;91.60;;;;;;5010071;28;20465;-69
2022/08/15 11:38:42;;;;;;;2.00;1.60;;;26.10;91.00;;;;;;5009754;28;20515;-69
2022/08/15 11:41:09;;;;;;;1.93;1.77;;;26.00;91.00;;;;;;5010142;28;20516;-69
2022/08/15 11:43:38;;;;;;;2.13;1.93;;;25.90;91.00;;;;;;5009714;28;20462;-69
2022/08/15 11:46:05;;;;;;;2.13;1.93;;;26.00;92.20;;;;;;5009971;28;20461;-69
2022/08/15 11:48:36;;;;;;;2.53;1.80;;;26.00;91.80;;;;;;5009905;28;20520;-69
2022/08/15 11:51:07;;;;;;;2.07;1.97;;;26.00;91.60;;;;;;5009288;28;20553;-69
2022/08/15 11:53:40;;;;;;;2.20;2.00;;;26.00;91.30;;;;;;5009660;28;20466;-69
2022/08/15 11:56:08;;;;;;;2.07;1.87;;;25.90;92.20;;;;;;5010233;28;20462;-70
2022/08/15 11:58:38;;;;;;;2.23;1.90;;;25.70;92.30;;;;;;5009824;28;20486;-72
2022/08/15 12:01:22;;;;;;;1.93;1.83;;;25.80;93.00;;;;;;5009840;28;20485;-69
2022/08/15 12:04:04;;;;;;;2.00;1.90;;;26.00;93.50;;;;;;5007348;28;20497;-71
2022/08/15 12:06:33;;;;;;;2.30;2.10;;;26.00;91.90;;;;;;5008369;28;20492;-71
2022/08/15 12:09:14;;;;;;;3.20;2.10;;;26.10;91.80;;;;;;4996712;28;20469;-73
2022/08/15 12:11:47;;;;;;;2.03;1.83;;;26.30;92.50;;;;;;5008769;28;20476;-69
2022/08/15 12:14:18;;;;;;;3.30;2.20;;;26.60;92.70;;;;;;5001789;28;20481;-69
2022/08/15 12:16:48;;;;;;;1.70;1.60;;;26.80;92.40;;;;;;5002108;28;21007;-69
2022/08/15 12:19:39;;;;;;;3.73;2.10;;;26.80;92.50;;;;;;5008348;28;20454;-69
2022/08/15 12:22:14;;;;;;;2.37;2.17;;;26.90;92.60;;;;;;5008861;28;20465;-69
2022/08/15 12:24:42;;;;;;;2.00;1.80;;;27.10;92.70;;;;;;5012340;28;20833;-69
2022/08/15 12:27:10;;;;;;;2.40;2.07;;;27.20;91.70;;;;;;5012388;28;20497;-68
2022/08/15 12:29:37;;;;;;;2.53;2.33;;;27.30;91.90;;;;;;5012466;28;20489;-68
2022/08/15 12:32:07;;;;;;;2.30;2.10;;;27.50;91.10;;;;;;5012450;28;20884;-69
2022/08/15 12:34:38;;;;;;;2.23;2.03;;;27.90;91.40;;;;;;5012672;28;20472;-68
2022/08/15 12:37:10;;;;;;;2.40;2.20;;;28.30;91.10;;;;;;5012012;28;20487;-69
2022/08/15 12:39:39;;;;;;;3.77;2.70;;;28.60;89.30;;;;;;5012107;28;20461;-69
2022/08/15 12:42:07;;;;;;;2.40;2.20;;;28.70;86.70;;;;;;5012664;28;20462;-68
2022/08/15 12:44:37;;;;;;;2.63;2.43;;;28.70;86.80;;;;;;5011608;28;21020;-69
2022/08/15 12:47:05;;;;;;;2.43;2.23;;;28.60;83.00;;;;;;5012094;28;20481;-68
2022/08/15 12:49:32;;;;;;;2.43;2.00;;;28.30;86.00;;;;;;5011738;28;20482;-68
2022/08/15 12:52:00;;;;;;;1.97;1.80;;;28.00;87.20;;;;;;5011350;28;21067;-67
2022/08/15 12:54:26;;;;;;;2.80;2.43;;;27.70;88.40;;;;;;5009998;28;20964;-69
2022/08/15 12:56:53;;;;;;;2.20;2.00;;;27.50;89.60;;;;;;5012257;28;20837;-72
2022/08/15 12:59:20;;;;;;;3.70;2.20;;;27.20;90.00;;;;;;5011930;28;20502;-69
2022/08/15 13:01:47;;;;;;;2.50;2.30;;;27.00;90.20;;;;;;5011874;28;20457;-69
2022/08/15 13:04:15;;;;;;;2.03;1.90;;;26.90;91.10;;;;;;5010935;28;20520;-69
2022/08/15 13:06:46;;;;;;;2.50;2.30;;;26.70;91.60;;;;;;5011904;28;20548;-72
2022/08/15 13:09:16;;;;;;;1.60;1.50;;;26.60;91.70;;;;;;5011585;28;20492;-71
2022/08/15 13:11:44;;;;;;;1.73;1.63;;;26.70;92.20;;;;;;5010521;28;20991;-71
2022/08/15 13:14:13;;;;;;;3.00;2.40;;;26.70;92.10;;;;;;5011044;28;20496;-69
2022/08/15 13:16:41;;;;;;;2.80;1.87;;;26.70;92.30;;;;;;5011622;28;20481;-69
2022/08/15 13:19:09;;;;;;;2.50;2.30;;;26.70;92.20;;;;;;5012080;28;20462;-69
2022/08/15 13:24:22;;;;;;;2.23;2.03;;;26.50;92.60;;;;;;5011341;28;21159;-69
2022/08/15 13:26:49;;;;;;;2.73;2.30;;;26.60;93.00;;;;;;5011480;28;20573;-69
2022/08/15 13:29:19;;;;;;;3.37;2.13;;;27.00;93.10;;;;;;5011202;28;20487;-69
2022/08/15 13:31:47;;;;;;;2.43;2.20;;;27.40;92.90;;;;;;5011348;28;20556;-69
2022/08/15 13:34:15;;;;;;;2.10;1.90;;;27.70;91.40;;;;;;5010021;28;21276;-68
2022/08/15 13:36:42;;;;;;;2.37;2.20;;;27.70;92.10;;;;;;5011929;28;20497;-69
2022/08/15 13:39:14;;;;;;;2.43;2.23;;;27.50;91.80;;;;;;5011052;28;20497;-69
2022/08/15 13:41:44;;;;;;;2.40;2.20;;;27.70;92.30;;;;;;5011892;28;20552;-69
2022/08/15 13:44:11;;;;;;;2.80;2.20;;;27.90;92.20;;;;;;5010556;28;20853;-69
2022/08/15 13:46:39;;;;;;;2.17;1.77;;;28.20;91.90;;;;;;5009849;28;20481;-68
2022/08/15 13:49:06;;;;;;;2.10;2.00;;;28.40;91.50;;;;;;5010816;28;20462;-70
2022/08/15 13:51:41;;;;;;;2.87;2.57;;;28.50;91.40;;;;;;5009927;28;20489;-73
2022/08/15 13:54:07;;;;;;;2.23;2.03;;;28.60;91.30;;;;;;5010182;28;20461;-69
2022/08/15 13:56:34;;;;;;;2.23;2.03;;;28.50;90.20;;;;;;5010541;28;20981;-68
2022/08/15 13:59:05;;;;;;;2.30;2.10;;;28.50;90.70;;;;;;5010408;28;20469;-70
2022/08/15 14:01:33;;;;;;;3.27;2.50;;;28.50;90.40;;;;;;5010790;28;20458;-69
2022/08/15 14:04:03;;;;;;;2.20;2.00;;;28.50;90.50;;;;;;5009617;28;20556;-67